sensor_id;sensor_type;location;lat;lon;timestamp;temperature;humidity
70550;DHT22;58101;48.658;2.328;2023-04-29T00:02:13;13.60;99.90
70550;DHT22;58101;48.658;2.328;2023-04-29T00:04:39;13.50;99.90
70550;DHT22;58101;48.658;2.328;2023-04-29T00:07:04;13.50;99.90
70550;DHT22;58101;48.658;2.328;2023-04-29T00:09:31;13.50;99.90
70550;DHT22;58101;48.658;2.328;2023-04-29T00:11:57;13.50;99.90
70550;DHT22;58101;48.658;2.328;2023-04-29T00:14:23;13.40;99.90
70550;DHT22;58101;48.658;2.328;2023-04-29T00:16:49;13.40;99.90
70550;DHT22;58101;48.658;2.328;2023-04-29T00:19:14;13.30;99.90
70550;DHT22;58101;48.658;2.328;2023-04-29T00:21:44;13.30;99.90
70550;DHT22;58101;48.658;2.328;2023-04-29T00:24:09;13.30;99.90
70550;DHT22;58101;48.658;2.328;2023-04-29T00:26:35;13.20;99.90
70550;DHT22;58101;48.658;2.328;2023-04-29T00:29:00;13.20;99.90
70550;DHT22;58101;48.658;2.328;2023-04-29T00:31:26;13.20;99.90
70550;DHT22;58101;48.658;2.328;2023-04-29T00:33:52;13.00;99.90
70550;DHT22;58101;48.658;2.328;2023-04-29T00:36:17;13.10;99.90
70550;DHT22;58101;48.658;2.328;2023-04-29T00:38:43;13.10;99.90
70550;DHT22;58101;48.658;2.328;2023-04-29T00:41:09;13.00;99.90
70550;DHT22;58101;48.658;2.328;2023-04-29T00:43:34;13.00;99.90
70550;DHT22;58101;48.658;2.328;2023-04-29T00:46:00;13.00;99.90
70550;DHT22;58101;48.658;2.328;2023-04-29T00:48:25;13.00;99.90
70550;DHT22;58101;48.658;2.328;2023-04-29T00:50:51;13.00;99.90
70550;DHT22;58101;48.658;2.328;2023-04-29T00:53:17;12.90;99.90
70550;DHT22;58101;48.658;2.328;2023-04-29T00:55:43;12.90;99.90
70550;DHT22;58101;48.658;2.328;2023-04-29T00:58:13;12.90;99.90
70550;DHT22;58101;48.658;2.328;2023-04-29T01:00:40;12.80;99.90
70550;DHT22;58101;48.658;2.328;2023-04-29T01:03:07;12.80;99.90
70550;DHT22;58101;48.658;2.328;2023-04-29T01:05:33;12.80;99.90
70550;DHT22;58101;48.658;2.328;2023-04-29T01:11:08;12.70;99.90
70550;DHT22;58101;48.658;2.328;2023-04-29T01:14:01;12.70;99.90
70550;DHT22;58101;48.658;2.328;2023-04-29T01:16:46;12.70;99.90
70550;DHT22;58101;48.658;2.328;2023-04-29T01:19:43;12.70;99.90
70550;DHT22;58101;48.658;2.328;2023-04-29T01:22:10;12.60;99.90
70550;DHT22;58101;48.658;2.328;2023-04-29T01:24:39;12.60;99.90
70550;DHT22;58101;48.658;2.328;2023-04-29T01:38:25;12.40;99.90
70550;DHT22;58101;48.658;2.328;2023-04-29T01:41:17;12.40;99.90
70550;DHT22;58101;48.658;2.328;2023-04-29T01:43:46;12.30;99.90
70550;DHT22;58101;48.658;2.328;2023-04-29T01:46:16;12.30;99.90
70550;DHT22;58101;48.658;2.328;2023-04-29T01:48:43;12.30;99.90
70550;DHT22;58101;48.658;2.328;2023-04-29T01:51:09;12.30;99.90
70550;DHT22;58101;48.658;2.328;2023-04-29T01:53:35;12.30;99.90
70550;DHT22;58101;48.658;2.328;2023-04-29T01:56:01;12.20;99.90
70550;DHT22;58101;48.658;2.328;2023-04-29T01:58:27;12.30;99.90
70550;DHT22;58101;48.658;2.328;2023-04-29T02:00:53;12.20;99.90
70550;DHT22;58101;48.658;2.328;2023-04-29T02:03:19;12.30;99.90
70550;DHT22;58101;48.658;2.328;2023-04-29T02:05:46;12.10;99.90
70550;DHT22;58101;48.658;2.328;2023-04-29T02:08:15;12.10;99.90
70550;DHT22;58101;48.658;2.328;2023-04-29T02:10:41;12.10;99.90
70550;DHT22;58101;48.658;2.328;2023-04-29T02:13:06;12.10;99.90
70550;DHT22;58101;48.658;2.328;2023-04-29T02:15:32;12.00;99.90
70550;DHT22;58101;48.658;2.328;2023-04-29T02:17:58;12.00;99.90
70550;DHT22;58101;48.658;2.328;2023-04-29T02:20:23;12.00;99.90
70550;DHT22;58101;48.658;2.328;2023-04-29T02:22:49;12.00;99.90
70550;DHT22;58101;48.658;2.328;2023-04-29T02:25:15;11.90;99.90
70550;DHT22;58101;48.658;2.328;2023-04-29T02:27:40;11.90;99.90
70550;DHT22;58101;48.658;2.328;2023-04-29T02:30:06;11.90;99.90
70550;DHT22;58101;48.658;2.328;2023-04-29T02:32:32;11.80;99.90
70550;DHT22;58101;48.658;2.328;2023-04-29T02:34:58;11.80;99.90
70550;DHT22;58101;48.658;2.328;2023-04-29T02:37:24;11.80;99.90
70550;DHT22;58101;48.658;2.328;2023-04-29T02:39:49;11.70;99.90
70550;DHT22;58101;48.658;2.328;2023-04-29T02:42:15;11.70;99.90
70550;DHT22;58101;48.658;2.328;2023-04-29T02:44:40;11.60;99.90
70550;DHT22;58101;48.658;2.328;2023-04-29T02:47:06;11.70;99.90
70550;DHT22;58101;48.658;2.328;2023-04-29T02:49:32;11.70;99.90
70550;DHT22;58101;48.658;2.328;2023-04-29T02:51:58;11.60;99.90
70550;DHT22;58101;48.658;2.328;2023-04-29T02:54:23;11.50;99.90
70550;DHT22;58101;48.658;2.328;2023-04-29T02:59:44;11.60;99.90
70550;DHT22;58101;48.658;2.328;2023-04-29T03:02:10;11.60;99.90
70550;DHT22;58101;48.658;2.328;2023-04-29T03:04:36;11.60;99.90
70550;DHT22;58101;48.658;2.328;2023-04-29T03:07:01;11.50;99.90
70550;DHT22;58101;48.658;2.328;2023-04-29T03:09:27;11.60;99.90
70550;DHT22;58101;48.658;2.328;2023-04-29T03:11:52;11.50;99.90
70550;DHT22;58101;48.658;2.328;2023-04-29T03:14:21;11.50;99.90
70550;DHT22;58101;48.658;2.328;2023-04-29T03:16:47;11.50;99.90
70550;DHT22;58101;48.658;2.328;2023-04-29T03:19:12;11.50;99.90
70550;DHT22;58101;48.658;2.328;2023-04-29T03:21:38;11.50;99.90
70550;DHT22;58101;48.658;2.328;2023-04-29T03:24:04;11.40;99.90
70550;DHT22;58101;48.658;2.328;2023-04-29T03:26:30;11.40;99.90
70550;DHT22;58101;48.658;2.328;2023-04-29T03:29:08;11.40;99.90
70550;DHT22;58101;48.658;2.328;2023-04-29T03:31:34;11.40;99.90
70550;DHT22;58101;48.658;2.328;2023-04-29T03:33:59;11.40;99.90
70550;DHT22;58101;48.658;2.328;2023-04-29T03:36:25;11.30;99.90
70550;DHT22;58101;48.658;2.328;2023-04-29T03:38:51;11.30;99.90
70550;DHT22;58101;48.658;2.328;2023-04-29T03:41:16;11.30;99.90
70550;DHT22;58101;48.658;2.328;2023-04-29T03:43:42;11.30;99.90
70550;DHT22;58101;48.658;2.328;2023-04-29T03:46:30;11.30;99.90
70550;DHT22;58101;48.658;2.328;2023-04-29T03:48:56;11.20;99.90
70550;DHT22;58101;48.658;2.328;2023-04-29T03:51:25;11.20;99.90
70550;DHT22;58101;48.658;2.328;2023-04-29T03:53:54;11.20;99.90
70550;DHT22;58101;48.658;2.328;2023-04-29T03:56:23;11.20;99.90
70550;DHT22;58101;48.658;2.328;2023-04-29T03:58:52;11.10;99.90
70550;DHT22;58101;48.658;2.328;2023-04-29T04:01:19;11.10;99.90
70550;DHT22;58101;48.658;2.328;2023-04-29T04:03:46;11.10;99.90
70550;DHT22;58101;48.658;2.328;2023-04-29T04:06:12;11.10;99.90
70550;DHT22;58101;48.658;2.328;2023-04-29T04:08:37;11.10;99.90
70550;DHT22;58101;48.658;2.328;2023-04-29T04:11:05;11.10;99.90
70550;DHT22;58101;48.658;2.328;2023-04-29T04:13:31;11.10;99.90
70550;DHT22;58101;48.658;2.328;2023-04-29T04:15:57;11.10;99.90
70550;DHT22;58101;48.658;2.328;2023-04-29T04:18:23;11.10;99.90
70550;DHT22;58101;48.658;2.328;2023-04-29T04:20:49;11.10;99.90
70550;DHT22;58101;48.658;2.328;2023-04-29T04:23:14;11.20;99.90
70550;DHT22;58101;48.658;2.328;2023-04-29T04:25:47;11.10;99.90
70550;DHT22;58101;48.658;2.328;2023-04-29T04:28:13;11.10;99.90
70550;DHT22;58101;48.658;2.328;2023-04-29T04:30:40;11.20;99.90
70550;DHT22;58101;48.658;2.328;2023-04-29T04:33:07;11.20;99.90
70550;DHT22;58101;48.658;2.328;2023-04-29T04:35:32;11.30;99.90
70550;DHT22;58101;48.658;2.328;2023-04-29T04:37:58;11.30;99.90
70550;DHT22;58101;48.658;2.328;2023-04-29T04:40:24;11.40;99.90
70550;DHT22;58101;48.658;2.328;2023-04-29T04:42:50;11.60;99.90
70550;DHT22;58101;48.658;2.328;2023-04-29T04:45:15;11.50;99.90
70550;DHT22;58101;48.658;2.328;2023-04-29T04:47:41;11.60;99.90
70550;DHT22;58101;48.658;2.328;2023-04-29T04:50:07;11.70;99.90
70550;DHT22;58101;48.658;2.328;2023-04-29T04:52:33;11.60;99.90
70550;DHT22;58101;48.658;2.328;2023-04-29T04:54:59;11.70;99.90
70550;DHT22;58101;48.658;2.328;2023-04-29T04:57:25;11.80;99.90
70550;DHT22;58101;48.658;2.328;2023-04-29T04:59:51;11.70;99.90
70550;DHT22;58101;48.658;2.328;2023-04-29T05:02:16;11.70;99.90
70550;DHT22;58101;48.658;2.328;2023-04-29T05:04:45;11.90;99.90
70550;DHT22;58101;48.658;2.328;2023-04-29T05:07:10;11.80;99.90
70550;DHT22;58101;48.658;2.328;2023-04-29T05:09:36;11.90;99.90
70550;DHT22;58101;48.658;2.328;2023-04-29T05:12:02;11.90;99.90
70550;DHT22;58101;48.658;2.328;2023-04-29T05:14:28;12.00;99.90
70550;DHT22;58101;48.658;2.328;2023-04-29T05:16:58;12.00;99.90
70550;DHT22;58101;48.658;2.328;2023-04-29T05:19:23;12.10;99.90
70550;DHT22;58101;48.658;2.328;2023-04-29T05:21:49;12.10;99.90
70550;DHT22;58101;48.658;2.328;2023-04-29T05:24:15;12.10;99.90
70550;DHT22;58101;48.658;2.328;2023-04-29T05:26:41;12.20;99.90
70550;DHT22;58101;48.658;2.328;2023-04-29T05:29:20;12.10;99.90
70550;DHT22;58101;48.658;2.328;2023-04-29T05:31:46;12.20;99.90
70550;DHT22;58101;48.658;2.328;2023-04-29T05:34:12;12.30;99.90
70550;DHT22;58101;48.658;2.328;2023-04-29T05:36:37;12.30;99.90
70550;DHT22;58101;48.658;2.328;2023-04-29T05:39:03;12.30;99.90
70550;DHT22;58101;48.658;2.328;2023-04-29T05:41:29;12.40;99.90
70550;DHT22;58101;48.658;2.328;2023-04-29T05:43:54;12.30;99.90
70550;DHT22;58101;48.658;2.328;2023-04-29T05:46:20;12.40;99.90
70550;DHT22;58101;48.658;2.328;2023-04-29T05:48:47;12.40;99.90
70550;DHT22;58101;48.658;2.328;2023-04-29T05:51:12;12.40;99.90
70550;DHT22;58101;48.658;2.328;2023-04-29T05:53:38;12.40;99.90
70550;DHT22;58101;48.658;2.328;2023-04-29T05:56:05;12.50;99.90
70550;DHT22;58101;48.658;2.328;2023-04-29T05:58:36;12.40;99.90
70550;DHT22;58101;48.658;2.328;2023-04-29T06:01:02;12.50;99.90
70550;DHT22;58101;48.658;2.328;2023-04-29T06:03:28;12.50;99.90
70550;DHT22;58101;48.658;2.328;2023-04-29T06:05:57;12.60;99.90
70550;DHT22;58101;48.658;2.328;2023-04-29T06:08:23;12.60;99.90
70550;DHT22;58101;48.658;2.328;2023-04-29T06:10:48;12.60;99.90
70550;DHT22;58101;48.658;2.328;2023-04-29T06:13:16;12.70;99.90
70550;DHT22;58101;48.658;2.328;2023-04-29T06:15:43;12.70;99.90
70550;DHT22;58101;48.658;2.328;2023-04-29T06:18:08;12.70;99.90
70550;DHT22;58101;48.658;2.328;2023-04-29T06:20:37;12.70;99.90
70550;DHT22;58101;48.658;2.328;2023-04-29T06:23:06;12.80;99.90
70550;DHT22;58101;48.658;2.328;2023-04-29T06:25:31;12.80;99.90
70550;DHT22;58101;48.658;2.328;2023-04-29T06:27:57;12.80;99.90
70550;DHT22;58101;48.658;2.328;2023-04-29T06:30:23;12.80;99.90
70550;DHT22;58101;48.658;2.328;2023-04-29T06:32:48;12.80;99.90
70550;DHT22;58101;48.658;2.328;2023-04-29T06:35:29;12.80;99.90
70550;DHT22;58101;48.658;2.328;2023-04-29T06:37:55;12.90;99.90
70550;DHT22;58101;48.658;2.328;2023-04-29T06:40:21;13.00;99.90
70550;DHT22;58101;48.658;2.328;2023-04-29T06:42:46;12.80;99.90
70550;DHT22;58101;48.658;2.328;2023-04-29T06:45:12;12.90;99.90
70550;DHT22;58101;48.658;2.328;2023-04-29T06:48:03;12.90;99.90
70550;DHT22;58101;48.658;2.328;2023-04-29T06:50:28;12.90;99.90
70550;DHT22;58101;48.658;2.328;2023-04-29T06:52:57;12.80;99.90
70550;DHT22;58101;48.658;2.328;2023-04-29T06:55:41;12.90;99.90
70550;DHT22;58101;48.658;2.328;2023-04-29T06:58:06;13.00;99.90
70550;DHT22;58101;48.658;2.328;2023-04-29T07:00:32;13.00;99.90
70550;DHT22;58101;48.658;2.328;2023-04-29T07:02:58;13.00;99.90
70550;DHT22;58101;48.658;2.328;2023-04-29T07:05:24;13.00;99.90
70550;DHT22;58101;48.658;2.328;2023-04-29T07:07:49;13.00;99.90
70550;DHT22;58101;48.658;2.328;2023-04-29T07:10:16;12.90;99.90
70550;DHT22;58101;48.658;2.328;2023-04-29T07:12:41;12.90;99.90
70550;DHT22;58101;48.658;2.328;2023-04-29T07:15:10;12.90;99.90
70550;DHT22;58101;48.658;2.328;2023-04-29T07:17:36;12.90;99.90
70550;DHT22;58101;48.658;2.328;2023-04-29T07:20:02;12.90;99.90
70550;DHT22;58101;48.658;2.328;2023-04-29T07:22:31;12.90;99.90
70550;DHT22;58101;48.658;2.328;2023-04-29T07:25:26;12.80;99.90
70550;DHT22;58101;48.658;2.328;2023-04-29T07:27:54;13.00;99.90
70550;DHT22;58101;48.658;2.328;2023-04-29T07:30:22;13.00;99.90
70550;DHT22;58101;48.658;2.328;2023-04-29T07:32:48;13.00;99.90
70550;DHT22;58101;48.658;2.328;2023-04-29T07:35:26;13.10;99.90
70550;DHT22;58101;48.658;2.328;2023-04-29T07:37:54;13.10;99.90
70550;DHT22;58101;48.658;2.328;2023-04-29T07:40:23;13.00;99.90
70550;DHT22;58101;48.658;2.328;2023-04-29T07:42:49;13.00;99.90
70550;DHT22;58101;48.658;2.328;2023-04-29T07:45:14;13.00;99.90
70550;DHT22;58101;48.658;2.328;2023-04-29T07:47:40;13.10;99.90
70550;DHT22;58101;48.658;2.328;2023-04-29T07:50:40;13.00;99.90
70550;DHT22;58101;48.658;2.328;2023-04-29T07:53:12;13.00;99.90
70550;DHT22;58101;48.658;2.328;2023-04-29T07:55:42;13.10;99.90
70550;DHT22;58101;48.658;2.328;2023-04-29T07:58:08;13.10;99.90
70550;DHT22;58101;48.658;2.328;2023-04-29T08:00:43;13.10;99.90
70550;DHT22;58101;48.658;2.328;2023-04-29T08:03:12;13.10;99.90
70550;DHT22;58101;48.658;2.328;2023-04-29T08:05:43;13.10;99.90
70550;DHT22;58101;48.658;2.328;2023-04-29T08:08:13;13.00;99.90
70550;DHT22;58101;48.658;2.328;2023-04-29T08:10:48;13.00;99.90
70550;DHT22;58101;48.658;2.328;2023-04-29T08:13:14;13.10;99.90
70550;DHT22;58101;48.658;2.328;2023-04-29T08:15:42;13.10;99.90
70550;DHT22;58101;48.658;2.328;2023-04-29T08:18:08;13.00;99.90
70550;DHT22;58101;48.658;2.328;2023-04-29T08:23:20;13.00;99.90
70550;DHT22;58101;48.658;2.328;2023-04-29T08:25:46;13.00;99.90
70550;DHT22;58101;48.658;2.328;2023-04-29T08:28:11;13.00;99.90
70550;DHT22;58101;48.658;2.328;2023-04-29T08:30:58;13.00;99.90
70550;DHT22;58101;48.658;2.328;2023-04-29T08:33:55;13.00;99.90
70550;DHT22;58101;48.658;2.328;2023-04-29T08:36:28;12.80;99.90
70550;DHT22;58101;48.658;2.328;2023-04-29T08:38:54;13.00;99.90
70550;DHT22;58101;48.658;2.328;2023-04-29T08:41:34;13.00;99.90
70550;DHT22;58101;48.658;2.328;2023-04-29T08:44:01;13.00;99.90
70550;DHT22;58101;48.658;2.328;2023-04-29T08:46:27;13.00;99.90
70550;DHT22;58101;48.658;2.328;2023-04-29T08:49:05;13.00;99.90
70550;DHT22;58101;48.658;2.328;2023-04-29T08:51:31;13.10;99.90
70550;DHT22;58101;48.658;2.328;2023-04-29T08:53:59;13.10;99.90
70550;DHT22;58101;48.658;2.328;2023-04-29T08:56:32;13.10;99.90
70550;DHT22;58101;48.658;2.328;2023-04-29T08:59:01;13.10;99.90
70550;DHT22;58101;48.658;2.328;2023-04-29T09:01:29;13.20;99.90
70550;DHT22;58101;48.658;2.328;2023-04-29T09:06:50;13.20;99.90
70550;DHT22;58101;48.658;2.328;2023-04-29T09:15:14;13.40;99.90
70550;DHT22;58101;48.658;2.328;2023-04-29T09:17:49;13.40;99.90
70550;DHT22;58101;48.658;2.328;2023-04-29T09:20:31;13.30;99.90
70550;DHT22;58101;48.658;2.328;2023-04-29T09:23:36;13.30;99.90
70550;DHT22;58101;48.658;2.328;2023-04-29T09:26:01;13.40;99.90
70550;DHT22;58101;48.658;2.328;2023-04-29T09:28:27;13.50;99.90
70550;DHT22;58101;48.658;2.328;2023-04-29T09:30:53;13.60;99.90
70550;DHT22;58101;48.658;2.328;2023-04-29T09:33:19;13.60;99.90
70550;DHT22;58101;48.658;2.328;2023-04-29T09:35:45;13.60;99.90
70550;DHT22;58101;48.658;2.328;2023-04-29T09:38:14;13.60;99.90
70550;DHT22;58101;48.658;2.328;2023-04-29T09:40:41;13.60;99.90
70550;DHT22;58101;48.658;2.328;2023-04-29T09:43:13;13.60;99.90
70550;DHT22;58101;48.658;2.328;2023-04-29T09:45:41;13.60;99.90
70550;DHT22;58101;48.658;2.328;2023-04-29T09:48:09;13.60;99.90
70550;DHT22;58101;48.658;2.328;2023-04-29T09:50:36;13.60;99.90
70550;DHT22;58101;48.658;2.328;2023-04-29T09:53:02;13.60;99.90
70550;DHT22;58101;48.658;2.328;2023-04-29T09:55:29;13.60;99.90
70550;DHT22;58101;48.658;2.328;2023-04-29T09:57:56;13.70;99.90
70550;DHT22;58101;48.658;2.328;2023-04-29T10:00:23;13.70;99.90
70550;DHT22;58101;48.658;2.328;2023-04-29T10:02:50;13.70;99.90
70550;DHT22;58101;48.658;2.328;2023-04-29T10:05:18;13.90;99.90
70550;DHT22;58101;48.658;2.328;2023-04-29T10:07:58;14.10;99.90
70550;DHT22;58101;48.658;2.328;2023-04-29T10:10:24;14.30;99.90
70550;DHT22;58101;48.658;2.328;2023-04-29T10:12:55;14.50;99.90
70550;DHT22;58101;48.658;2.328;2023-04-29T10:15:42;14.60;99.90
70550;DHT22;58101;48.658;2.328;2023-04-29T10:18:19;14.80;99.90
70550;DHT22;58101;48.658;2.328;2023-04-29T10:20:46;14.70;99.90
70550;DHT22;58101;48.658;2.328;2023-04-29T10:23:19;14.80;99.90
70550;DHT22;58101;48.658;2.328;2023-04-29T10:25:47;14.90;99.90
70550;DHT22;58101;48.658;2.328;2023-04-29T10:28:19;14.80;99.90
70550;DHT22;58101;48.658;2.328;2023-04-29T10:30:50;14.90;99.90
70550;DHT22;58101;48.658;2.328;2023-04-29T10:33:16;15.00;99.90
70550;DHT22;58101;48.658;2.328;2023-04-29T10:35:43;15.00;99.90
70550;DHT22;58101;48.658;2.328;2023-04-29T10:38:25;15.00;99.90
70550;DHT22;58101;48.658;2.328;2023-04-29T10:40:54;15.10;99.90
70550;DHT22;58101;48.658;2.328;2023-04-29T10:43:24;15.20;99.90
70550;DHT22;58101;48.658;2.328;2023-04-29T10:46:17;15.20;99.90
70550;DHT22;58101;48.658;2.328;2023-04-29T10:48:44;15.30;99.90
70550;DHT22;58101;48.658;2.328;2023-04-29T10:51:09;15.40;99.90
70550;DHT22;58101;48.658;2.328;2023-04-29T10:56:46;15.60;99.90
70550;DHT22;58101;48.658;2.328;2023-04-29T10:59:17;15.60;99.90
70550;DHT22;58101;48.658;2.328;2023-04-29T11:01:49;15.60;99.90
70550;DHT22;58101;48.658;2.328;2023-04-29T11:04:17;15.60;99.90
70550;DHT22;58101;48.658;2.328;2023-04-29T11:06:45;15.70;99.90
70550;DHT22;58101;48.658;2.328;2023-04-29T11:11:45;15.70;99.90
70550;DHT22;58101;48.658;2.328;2023-04-29T11:14:13;15.80;99.90
70550;DHT22;58101;48.658;2.328;2023-04-29T11:16:50;15.80;99.90
70550;DHT22;58101;48.658;2.328;2023-04-29T11:19:33;15.80;99.90
70550;DHT22;58101;48.658;2.328;2023-04-29T11:27:34;15.90;99.90
70550;DHT22;58101;48.658;2.328;2023-04-29T11:30:05;15.90;99.90
70550;DHT22;58101;48.658;2.328;2023-04-29T11:32:36;15.80;99.90
70550;DHT22;58101;48.658;2.328;2023-04-29T11:35:14;15.70;99.90
70550;DHT22;58101;48.658;2.328;2023-04-29T11:37:44;15.70;99.90
70550;DHT22;58101;48.658;2.328;2023-04-29T11:40:12;15.80;99.90
70550;DHT22;58101;48.658;2.328;2023-04-29T11:42:47;15.80;99.90
70550;DHT22;58101;48.658;2.328;2023-04-29T11:45:13;15.90;99.90
70550;DHT22;58101;48.658;2.328;2023-04-29T11:47:43;15.90;99.90
70550;DHT22;58101;48.658;2.328;2023-04-29T11:50:11;16.10;99.90
70550;DHT22;58101;48.658;2.328;2023-04-29T11:52:42;16.10;99.90
70550;DHT22;58101;48.658;2.328;2023-04-29T11:55:13;16.20;99.90
70550;DHT22;58101;48.658;2.328;2023-04-29T11:57:47;16.30;99.90
70550;DHT22;58101;48.658;2.328;2023-04-29T12:02:51;16.40;99.90
70550;DHT22;58101;48.658;2.328;2023-04-29T12:05:16;16.40;99.90
70550;DHT22;58101;48.658;2.328;2023-04-29T12:07:45;16.40;99.90
70550;DHT22;58101;48.658;2.328;2023-04-29T12:10:11;16.30;99.90
70550;DHT22;58101;48.658;2.328;2023-04-29T12:12:38;16.30;99.90
70550;DHT22;58101;48.658;2.328;2023-04-29T12:15:09;16.40;99.90
70550;DHT22;58101;48.658;2.328;2023-04-29T12:17:43;16.40;99.90
70550;DHT22;58101;48.658;2.328;2023-04-29T12:20:11;16.40;99.90
70550;DHT22;58101;48.658;2.328;2023-04-29T12:22:36;16.50;99.90
70550;DHT22;58101;48.658;2.328;2023-04-29T12:25:03;16.50;99.90
70550;DHT22;58101;48.658;2.328;2023-04-29T12:27:29;16.60;99.90
70550;DHT22;58101;48.658;2.328;2023-04-29T12:29:56;16.70;99.90
70550;DHT22;58101;48.658;2.328;2023-04-29T12:32:23;16.80;99.90
70550;DHT22;58101;48.658;2.328;2023-04-29T12:34:50;16.80;98.30
70550;DHT22;58101;48.658;2.328;2023-04-29T12:37:21;16.80;98.50
70550;DHT22;58101;48.658;2.328;2023-04-29T12:39:49;16.90;99.50
70550;DHT22;58101;48.658;2.328;2023-04-29T12:42:15;17.00;99.90
70550;DHT22;58101;48.658;2.328;2023-04-29T12:44:44;17.10;98.10
70550;DHT22;58101;48.658;2.328;2023-04-29T12:47:14;17.20;96.60
70550;DHT22;58101;48.658;2.328;2023-04-29T12:49:46;17.30;95.10
70550;DHT22;58101;48.658;2.328;2023-04-29T12:52:16;17.30;95.10
70550;DHT22;58101;48.658;2.328;2023-04-29T12:54:42;17.30;93.90
70550;DHT22;58101;48.658;2.328;2023-04-29T12:57:13;17.60;93.30
70550;DHT22;58101;48.658;2.328;2023-04-29T12:59:38;17.80;91.20
70550;DHT22;58101;48.658;2.328;2023-04-29T13:02:07;18.00;90.30
70550;DHT22;58101;48.658;2.328;2023-04-29T13:04:33;18.20;90.70
70550;DHT22;58101;48.658;2.328;2023-04-29T13:07:02;18.30;80.50
70550;DHT22;58101;48.658;2.328;2023-04-29T13:09:28;18.40;80.10
70550;DHT22;58101;48.658;2.328;2023-04-29T13:12:15;18.50;80.50
70550;DHT22;58101;48.658;2.328;2023-04-29T13:15:05;18.60;78.00
70550;DHT22;58101;48.658;2.328;2023-04-29T13:17:32;18.70;76.90
70550;DHT22;58101;48.658;2.328;2023-04-29T13:20:01;18.70;74.80
70550;DHT22;58101;48.658;2.328;2023-04-29T13:22:27;18.70;76.20
70550;DHT22;58101;48.658;2.328;2023-04-29T13:24:53;18.70;77.90
70550;DHT22;58101;48.658;2.328;2023-04-29T13:27:42;18.60;76.60
70550;DHT22;58101;48.658;2.328;2023-04-29T13:30:08;18.50;76.60
70550;DHT22;58101;48.658;2.328;2023-04-29T13:32:40;18.40;77.30
70550;DHT22;58101;48.658;2.328;2023-04-29T13:35:17;18.40;77.20
70550;DHT22;58101;48.658;2.328;2023-04-29T13:37:45;18.30;76.20
70550;DHT22;58101;48.658;2.328;2023-04-29T13:40:23;18.20;77.90
70550;DHT22;58101;48.658;2.328;2023-04-29T13:42:48;18.30;77.80
70550;DHT22;58101;48.658;2.328;2023-04-29T13:47:51;18.40;73.30
70550;DHT22;58101;48.658;2.328;2023-04-29T13:50:16;18.40;71.90
70550;DHT22;58101;48.658;2.328;2023-04-29T13:52:42;18.50;72.60
70550;DHT22;58101;48.658;2.328;2023-04-29T13:55:08;18.40;70.30
70550;DHT22;58101;48.658;2.328;2023-04-29T13:57:34;18.50;71.90
70550;DHT22;58101;48.658;2.328;2023-04-29T14:00:02;18.50;72.50
70550;DHT22;58101;48.658;2.328;2023-04-29T14:02:28;18.50;69.20
70550;DHT22;58101;48.658;2.328;2023-04-29T14:04:58;18.50;70.90
70550;DHT22;58101;48.658;2.328;2023-04-29T14:07:24;18.50;72.20
70550;DHT22;58101;48.658;2.328;2023-04-29T14:09:59;18.40;70.60
70550;DHT22;58101;48.658;2.328;2023-04-29T14:12:25;18.20;70.80
70550;DHT22;58101;48.658;2.328;2023-04-29T14:14:53;18.30;72.60
70550;DHT22;58101;48.658;2.328;2023-04-29T15:35:43;18.20;69.40
70550;DHT22;58101;48.658;2.328;2023-04-29T15:38:11;18.10;71.00
70550;DHT22;58101;48.658;2.328;2023-04-29T15:40:37;18.10;72.00
70550;DHT22;58101;48.658;2.328;2023-04-29T15:43:03;18.00;69.90
70550;DHT22;58101;48.658;2.328;2023-04-29T15:45:57;17.90;72.00
70550;DHT22;58101;48.658;2.328;2023-04-29T15:48:23;17.90;70.00
70550;DHT22;58101;48.658;2.328;2023-04-29T15:51:01;17.80;72.80
70550;DHT22;58101;48.658;2.328;2023-04-29T15:53:47;17.80;73.50
70550;DHT22;58101;48.658;2.328;2023-04-29T15:56:15;17.80;73.90
70550;DHT22;58101;48.658;2.328;2023-04-29T15:58:41;17.90;70.70
70550;DHT22;58101;48.658;2.328;2023-04-29T16:01:06;18.00;70.90
70550;DHT22;58101;48.658;2.328;2023-04-29T16:03:32;18.00;71.90
70550;DHT22;58101;48.658;2.328;2023-04-29T16:05:59;18.00;70.50
70550;DHT22;58101;48.658;2.328;2023-04-29T16:08:25;17.90;68.50
70550;DHT22;58101;48.658;2.328;2023-04-29T16:10:51;17.80;68.50
70550;DHT22;58101;48.658;2.328;2023-04-29T16:13:17;17.70;67.70
70550;DHT22;58101;48.658;2.328;2023-04-29T16:15:43;17.60;70.30
70550;DHT22;58101;48.658;2.328;2023-04-29T16:18:09;17.50;70.60
70550;DHT22;58101;48.658;2.328;2023-04-29T16:20:35;17.40;69.80
70550;DHT22;58101;48.658;2.328;2023-04-29T16:23:01;17.30;72.10
70550;DHT22;58101;48.658;2.328;2023-04-29T16:25:26;17.20;73.40
70550;DHT22;58101;48.658;2.328;2023-04-29T16:27:52;17.10;74.10
70550;DHT22;58101;48.658;2.328;2023-04-29T16:30:18;17.00;73.80
70550;DHT22;58101;48.658;2.328;2023-04-29T16:32:47;17.00;73.60
70550;DHT22;58101;48.658;2.328;2023-04-29T16:35:13;16.90;74.50
70550;DHT22;58101;48.658;2.328;2023-04-29T16:37:39;16.80;73.50
70550;DHT22;58101;48.658;2.328;2023-04-29T16:40:05;16.80;75.80
70550;DHT22;58101;48.658;2.328;2023-04-29T16:42:31;16.70;76.90
70550;DHT22;58101;48.658;2.328;2023-04-29T16:44:57;16.70;75.20
70550;DHT22;58101;48.658;2.328;2023-04-29T16:47:25;16.70;74.60
70550;DHT22;58101;48.658;2.328;2023-04-29T16:49:51;16.60;74.60
70550;DHT22;58101;48.658;2.328;2023-04-29T16:52:18;16.50;76.00
70550;DHT22;58101;48.658;2.328;2023-04-29T16:54:45;16.40;75.80
70550;DHT22;58101;48.658;2.328;2023-04-29T16:57:11;16.30;78.20
70550;DHT22;58101;48.658;2.328;2023-04-29T16:59:36;16.20;78.80
70550;DHT22;58101;48.658;2.328;2023-04-29T17:02:08;16.20;83.90
70550;DHT22;58101;48.658;2.328;2023-04-29T17:04:34;16.10;81.80
70550;DHT22;58101;48.658;2.328;2023-04-29T17:07:00;16.10;81.90
70550;DHT22;58101;48.658;2.328;2023-04-29T17:09:26;16.00;84.00
70550;DHT22;58101;48.658;2.328;2023-04-29T17:11:52;15.90;82.50
70550;DHT22;58101;48.658;2.328;2023-04-29T17:14:20;15.90;82.60
70550;DHT22;58101;48.658;2.328;2023-04-29T17:16:46;15.70;84.10
70550;DHT22;58101;48.658;2.328;2023-04-29T17:19:12;15.70;84.20
70550;DHT22;58101;48.658;2.328;2023-04-29T17:21:38;15.60;84.70
70550;DHT22;58101;48.658;2.328;2023-04-29T17:24:03;15.50;86.70
70550;DHT22;58101;48.658;2.328;2023-04-29T17:26:29;15.50;89.40
70550;DHT22;58101;48.658;2.328;2023-04-29T17:28:55;15.50;90.60
70550;DHT22;58101;48.658;2.328;2023-04-29T17:31:24;15.50;87.10
70550;DHT22;58101;48.658;2.328;2023-04-29T17:33:58;15.40;88.60
70550;DHT22;58101;48.658;2.328;2023-04-29T17:36:32;15.40;89.00
70550;DHT22;58101;48.658;2.328;2023-04-29T17:39:01;15.40;89.10
70550;DHT22;58101;48.658;2.328;2023-04-29T17:41:27;15.50;89.20
70550;DHT22;58101;48.658;2.328;2023-04-29T17:43:52;15.40;90.70